Airfield :
LOGIN :

Register | Disclaimer

   EN    FR    IT 

 










Legend :    VFR   Marginal VFR   IFR   Intensive IFR   Very Intensive IFR
Visi :
Ceiling :
>= 8 km
>= 3000ft
5 to 8 km
1000 to 3000 ft
1500m to 5 km
500 to 1000 ft
800 to 1500m
200 to 500 ft
< 800m
< 200 ft
Symbols :   Thunderstorms  Fog  Heavy snow  Heavy precipitations  Wind > 20 kt
SIGMETs :     Misc.  Thunderstorms  Icing  Turbulence  Mountain Waves  Volcanic Ashes







- Airport Elevation : 135 ft
- IATA code : EDI
- Download approach charts


EGPH - Edinburgh

CURRENT METAR :
  • 200720Z VRB01KT 2300 1000E R24/P1500 DZ OVC002 05/05 Q1006 REDZ

EXPIRED METARs :
  • 200650Z VRB03KT 2200 -DZ OVC005 05/05 Q1006
  • 200620Z 04004KT 5000 -DZ OVC004 05/04 Q1006 REDZ
  • 200550Z 03003KT 2300 DZ FEW004 OVC008 04/04 Q1007
  • 200520Z 05004KT 6000 -RA OVC012 04/04 Q1007
  • 200450Z 06005KT 9999 -RA OVC015 04/04 Q1008

TAF TAF EGPH
Valid from the 20 at 06:00 until the 21 at 06:00 UTC


200450Z 2006/2106 VRB05KT 9999 BKN020
TEMPO 2006/2015 4000 +RA RADZ BKN004
PROB30
TEMPO 2006/2012 1400 BR BKN001
BECMG 2015/2018 4000 BR BKN004
PROB40 2015/2024 1400 DZ BKN001
TEMPO 2100/2106 8000 RA BKN015
ATIS : +44 131 339 2823
No reported NOTAMs for that airfield.
2 SIGMETs reported for the Scottish FIR (EGPX) :
 
Severe icing
EGPX SIGMET 03 VALID 200800/201200 EGRR
EGPX SCOTTISH FIR SEV ICE FCST WI N5853 W00448 - N5716 E00045 - N5605 W00030 - N5810 W00622 - N5853 W00448 FL030/100 STNR NC=
Severe icing
EGPX SIGMET 02 VALID 200400/200800 EGRR
EGPX SCOTTISH FIR SEV ICE FCST WI N5858 W00421 - N5640 E00052 - N5603 W00047 - N5827 W00643 - N5858 W00421 FL030/100 STNR NC=



MET'MAP, your aeronautical weather chart ! - Copyright ORBIFLY December 2007 - Disclaimer

ORBIFLY MET'MAP TEAM :

Programming & Development : Alexandra Zaïnal
Concept & Development : Baudouin d'Aumeries
Co-Development & Prog : Marc-Olivier Méhu
Technical & hardware support : Manuel Goepfert

Contact : metmap@orbifly.com




SOURCES & CREDITS :

   NOAA